sensor_id;sensor_type;location;lat;lon;timestamp;temperature;humidity
7666;DHT22;3875;46.562;4.898;2024-03-08T00:01:49;4.90;90.20
7666;DHT22;3875;46.562;4.898;2024-03-08T00:04:15;4.90;90.30
7666;DHT22;3875;46.562;4.898;2024-03-08T00:06:41;4.80;90.50
7666;DHT22;3875;46.562;4.898;2024-03-08T00:09:07;4.70;90.90
7666;DHT22;3875;46.562;4.898;2024-03-08T00:11:34;4.70;91.00
7666;DHT22;3875;46.562;4.898;2024-03-08T00:14:00;4.70;91.00
7666;DHT22;3875;46.562;4.898;2024-03-08T00:16:26;4.70;91.10
7666;DHT22;3875;46.562;4.898;2024-03-08T00:18:51;4.80;91.10
7666;DHT22;3875;46.562;4.898;2024-03-08T00:21:17;4.80;90.90
7666;DHT22;3875;46.562;4.898;2024-03-08T00:23:43;4.70;90.50
7666;DHT22;3875;46.562;4.898;2024-03-08T00:26:08;4.70;90.50
7666;DHT22;3875;46.562;4.898;2024-03-08T00:28:35;4.60;90.30
7666;DHT22;3875;46.562;4.898;2024-03-08T00:31:00;4.50;90.60
7666;DHT22;3875;46.562;4.898;2024-03-08T00:33:26;4.40;90.80
7666;DHT22;3875;46.562;4.898;2024-03-08T00:35:53;4.40;91.00
7666;DHT22;3875;46.562;4.898;2024-03-08T00:38:19;4.30;91.10
7666;DHT22;3875;46.562;4.898;2024-03-08T00:40:45;4.30;91.30
7666;DHT22;3875;46.562;4.898;2024-03-08T00:43:11;4.20;91.50
7666;DHT22;3875;46.562;4.898;2024-03-08T00:45:36;4.20;91.70
7666;DHT22;3875;46.562;4.898;2024-03-08T00:48:03;4.20;91.70
7666;DHT22;3875;46.562;4.898;2024-03-08T00:50:29;4.20;91.60
7666;DHT22;3875;46.562;4.898;2024-03-08T00:52:55;4.20;91.70
7666;DHT22;3875;46.562;4.898;2024-03-08T00:55:21;4.20;91.60
7666;DHT22;3875;46.562;4.898;2024-03-08T00:57:47;4.30;91.50
7666;DHT22;3875;46.562;4.898;2024-03-08T01:00:13;4.30;91.30
7666;DHT22;3875;46.562;4.898;2024-03-08T01:02:39;4.30;91.20
7666;DHT22;3875;46.562;4.898;2024-03-08T01:05:05;4.30;91.10
7666;DHT22;3875;46.562;4.898;2024-03-08T01:07:33;4.30;91.00
7666;DHT22;3875;46.562;4.898;2024-03-08T01:10:01;4.30;90.90
7666;DHT22;3875;46.562;4.898;2024-03-08T01:12:27;4.30;90.80
7666;DHT22;3875;46.562;4.898;2024-03-08T01:14:52;4.30;90.70
7666;DHT22;3875;46.562;4.898;2024-03-08T01:17:18;4.30;90.60
7666;DHT22;3875;46.562;4.898;2024-03-08T01:19:43;4.30;90.60
7666;DHT22;3875;46.562;4.898;2024-03-08T01:22:12;4.30;90.30
7666;DHT22;3875;46.562;4.898;2024-03-08T01:24:37;4.20;90.20
7666;DHT22;3875;46.562;4.898;2024-03-08T01:27:04;4.20;90.20
7666;DHT22;3875;46.562;4.898;2024-03-08T01:29:30;4.10;90.50
7666;DHT22;3875;46.562;4.898;2024-03-08T01:31:55;4.10;90.60
7666;DHT22;3875;46.562;4.898;2024-03-08T01:34:22;4.00;90.60
7666;DHT22;3875;46.562;4.898;2024-03-08T01:36:50;4.00;90.60
7666;DHT22;3875;46.562;4.898;2024-03-08T01:39:16;4.00;90.50
7666;DHT22;3875;46.562;4.898;2024-03-08T01:41:42;4.00;90.50
7666;DHT22;3875;46.562;4.898;2024-03-08T01:44:08;4.00;90.30
7666;DHT22;3875;46.562;4.898;2024-03-08T01:46:35;4.00;90.20
7666;DHT22;3875;46.562;4.898;2024-03-08T01:49:01;3.90;90.40
7666;DHT22;3875;46.562;4.898;2024-03-08T01:51:28;3.90;90.50
7666;DHT22;3875;46.562;4.898;2024-03-08T01:53:55;3.80;90.40
7666;DHT22;3875;46.562;4.898;2024-03-08T01:56:23;3.80;90.60
7666;DHT22;3875;46.562;4.898;2024-03-08T01:58:51;3.70;90.70
7666;DHT22;3875;46.562;4.898;2024-03-08T02:01:17;3.70;90.80
7666;DHT22;3875;46.562;4.898;2024-03-08T02:03:44;3.70;91.10
7666;DHT22;3875;46.562;4.898;2024-03-08T02:06:13;3.70;91.20
7666;DHT22;3875;46.562;4.898;2024-03-08T02:08:43;3.50;91.30
7666;DHT22;3875;46.562;4.898;2024-03-08T02:11:10;3.40;91.60
7666;DHT22;3875;46.562;4.898;2024-03-08T02:13:36;3.30;91.90
7666;DHT22;3875;46.562;4.898;2024-03-08T02:16:02;3.20;92.10
7666;DHT22;3875;46.562;4.898;2024-03-08T02:18:30;3.20;92.40
7666;DHT22;3875;46.562;4.898;2024-03-08T02:20:57;3.20;92.80
7666;DHT22;3875;46.562;4.898;2024-03-08T02:23:23;3.30;93.10
7666;DHT22;3875;46.562;4.898;2024-03-08T02:25:51;3.40;93.00
7666;DHT22;3875;46.562;4.898;2024-03-08T02:28:16;3.40;92.90
7666;DHT22;3875;46.562;4.898;2024-03-08T02:30:45;3.40;92.70
7666;DHT22;3875;46.562;4.898;2024-03-08T02:33:18;3.50;92.60
7666;DHT22;3875;46.562;4.898;2024-03-08T02:35:44;3.50;92.50
7666;DHT22;3875;46.562;4.898;2024-03-08T02:38:13;3.50;92.40
7666;DHT22;3875;46.562;4.898;2024-03-08T02:40:43;3.50;92.30
7666;DHT22;3875;46.562;4.898;2024-03-08T02:43:09;3.50;92.40
7666;DHT22;3875;46.562;4.898;2024-03-08T02:45:35;3.50;92.50
7666;DHT22;3875;46.562;4.898;2024-03-08T02:48:01;3.50;92.50
7666;DHT22;3875;46.562;4.898;2024-03-08T02:50:27;3.60;92.30
7666;DHT22;3875;46.562;4.898;2024-03-08T02:52:54;3.50;92.30
7666;DHT22;3875;46.562;4.898;2024-03-08T02:55:19;3.60;92.40
7666;DHT22;3875;46.562;4.898;2024-03-08T02:57:46;3.50;92.30
7666;DHT22;3875;46.562;4.898;2024-03-08T03:00:14;3.50;92.40
7666;DHT22;3875;46.562;4.898;2024-03-08T03:02:41;3.50;92.40
7666;DHT22;3875;46.562;4.898;2024-03-08T03:05:08;3.50;92.30
7666;DHT22;3875;46.562;4.898;2024-03-08T03:07:35;3.50;92.40
7666;DHT22;3875;46.562;4.898;2024-03-08T03:10:01;3.50;92.70
7666;DHT22;3875;46.562;4.898;2024-03-08T03:12:28;3.40;92.80
7666;DHT22;3875;46.562;4.898;2024-03-08T03:14:53;3.40;92.90
7666;DHT22;3875;46.562;4.898;2024-03-08T03:17:19;3.40;93.10
7666;DHT22;3875;46.562;4.898;2024-03-08T03:19:45;3.40;93.00
7666;DHT22;3875;46.562;4.898;2024-03-08T03:22:12;3.30;93.20
7666;DHT22;3875;46.562;4.898;2024-03-08T03:24:38;3.30;93.50
7666;DHT22;3875;46.562;4.898;2024-03-08T03:27:04;3.30;93.50
7666;DHT22;3875;46.562;4.898;2024-03-08T03:29:39;3.30;93.60
7666;DHT22;3875;46.562;4.898;2024-03-08T03:32:08;3.40;94.20
7666;DHT22;3875;46.562;4.898;2024-03-08T03:34:34;3.40;94.00
7666;DHT22;3875;46.562;4.898;2024-03-08T03:37:03;3.40;93.90
7666;DHT22;3875;46.562;4.898;2024-03-08T03:39:29;3.40;94.20
7666;DHT22;3875;46.562;4.898;2024-03-08T03:41:58;3.40;93.90
7666;DHT22;3875;46.562;4.898;2024-03-08T03:44:24;3.40;93.70
7666;DHT22;3875;46.562;4.898;2024-03-08T03:46:50;3.40;93.80
7666;DHT22;3875;46.562;4.898;2024-03-08T03:49:18;3.50;94.30
7666;DHT22;3875;46.562;4.898;2024-03-08T03:51:44;3.60;94.30
7666;DHT22;3875;46.562;4.898;2024-03-08T03:54:10;3.60;94.10
7666;DHT22;3875;46.562;4.898;2024-03-08T03:56:36;3.60;94.10
7666;DHT22;3875;46.562;4.898;2024-03-08T03:59:01;3.70;94.30
7666;DHT22;3875;46.562;4.898;2024-03-08T04:01:27;3.70;94.70
7666;DHT22;3875;46.562;4.898;2024-03-08T04:03:53;3.90;95.00
7666;DHT22;3875;46.562;4.898;2024-03-08T04:06:18;4.00;95.00
7666;DHT22;3875;46.562;4.898;2024-03-08T04:08:44;4.10;95.00
7666;DHT22;3875;46.562;4.898;2024-03-08T04:11:09;4.20;94.70
7666;DHT22;3875;46.562;4.898;2024-03-08T04:13:36;4.20;94.50
7666;DHT22;3875;46.562;4.898;2024-03-08T04:16:02;4.30;94.30
7666;DHT22;3875;46.562;4.898;2024-03-08T04:18:28;4.30;94.20
7666;DHT22;3875;46.562;4.898;2024-03-08T04:20:54;4.40;94.30
7666;DHT22;3875;46.562;4.898;2024-03-08T04:23:20;4.40;94.00
7666;DHT22;3875;46.562;4.898;2024-03-08T04:25:46;4.50;93.90
7666;DHT22;3875;46.562;4.898;2024-03-08T04:28:12;4.50;93.70
7666;DHT22;3875;46.562;4.898;2024-03-08T04:30:40;4.50;93.50
7666;DHT22;3875;46.562;4.898;2024-03-08T04:33:06;4.50;93.50
7666;DHT22;3875;46.562;4.898;2024-03-08T04:35:35;4.40;93.30
7666;DHT22;3875;46.562;4.898;2024-03-08T04:38:00;4.40;93.20
7666;DHT22;3875;46.562;4.898;2024-03-08T04:40:26;4.40;93.20
7666;DHT22;3875;46.562;4.898;2024-03-08T04:42:52;4.40;93.10
7666;DHT22;3875;46.562;4.898;2024-03-08T04:45:18;4.40;92.90
7666;DHT22;3875;46.562;4.898;2024-03-08T04:47:44;4.30;93.00
7666;DHT22;3875;46.562;4.898;2024-03-08T04:50:09;4.30;93.00
7666;DHT22;3875;46.562;4.898;2024-03-08T04:52:35;4.30;93.00
7666;DHT22;3875;46.562;4.898;2024-03-08T04:55:04;4.30;93.00
7666;DHT22;3875;46.562;4.898;2024-03-08T04:57:30;4.30;92.80
7666;DHT22;3875;46.562;4.898;2024-03-08T04:59:57;4.30;92.60
7666;DHT22;3875;46.562;4.898;2024-03-08T05:02:24;4.20;92.40
7666;DHT22;3875;46.562;4.898;2024-03-08T05:04:50;4.10;92.50
7666;DHT22;3875;46.562;4.898;2024-03-08T05:07:16;4.10;92.40
7666;DHT22;3875;46.562;4.898;2024-03-08T05:09:42;4.00;92.60
7666;DHT22;3875;46.562;4.898;2024-03-08T05:12:07;3.90;92.70
7666;DHT22;3875;46.562;4.898;2024-03-08T05:14:33;3.90;92.80
7666;DHT22;3875;46.562;4.898;2024-03-08T05:17:00;3.80;92.80
7666;DHT22;3875;46.562;4.898;2024-03-08T05:19:26;3.80;92.90
7666;DHT22;3875;46.562;4.898;2024-03-08T05:21:52;3.80;92.80
7666;DHT22;3875;46.562;4.898;2024-03-08T05:24:18;3.80;93.00
7666;DHT22;3875;46.562;4.898;2024-03-08T05:26:44;3.80;93.10
7666;DHT22;3875;46.562;4.898;2024-03-08T05:29:10;3.70;93.00
7666;DHT22;3875;46.562;4.898;2024-03-08T05:34:11;3.70;92.80
7666;DHT22;3875;46.562;4.898;2024-03-08T05:36:40;3.70;92.90
7666;DHT22;3875;46.562;4.898;2024-03-08T05:39:05;3.60;93.10
7666;DHT22;3875;46.562;4.898;2024-03-08T05:41:32;3.60;93.10
7666;DHT22;3875;46.562;4.898;2024-03-08T05:43:57;3.60;93.10
7666;DHT22;3875;46.562;4.898;2024-03-08T05:46:23;3.60;93.20
7666;DHT22;3875;46.562;4.898;2024-03-08T05:48:48;3.50;93.10
7666;DHT22;3875;46.562;4.898;2024-03-08T05:51:14;3.50;93.20
7666;DHT22;3875;46.562;4.898;2024-03-08T05:53:40;3.50;93.50
7666;DHT22;3875;46.562;4.898;2024-03-08T05:56:06;3.50;93.60
7666;DHT22;3875;46.562;4.898;2024-03-08T05:58:32;3.50;93.60
7666;DHT22;3875;46.562;4.898;2024-03-08T06:00:57;3.50;93.50
7666;DHT22;3875;46.562;4.898;2024-03-08T06:03:23;3.50;93.30
7666;DHT22;3875;46.562;4.898;2024-03-08T06:05:49;3.40;93.40
7666;DHT22;3875;46.562;4.898;2024-03-08T06:08:15;3.40;93.50
7666;DHT22;3875;46.562;4.898;2024-03-08T06:10:41;3.40;93.50
7666;DHT22;3875;46.562;4.898;2024-03-08T06:13:07;3.40;93.60
7666;DHT22;3875;46.562;4.898;2024-03-08T06:15:33;3.50;93.70
7666;DHT22;3875;46.562;4.898;2024-03-08T06:18:00;3.50;93.50
7666;DHT22;3875;46.562;4.898;2024-03-08T06:20:25;3.60;93.50
7666;DHT22;3875;46.562;4.898;2024-03-08T06:22:52;3.60;93.40
7666;DHT22;3875;46.562;4.898;2024-03-08T06:25:18;3.60;93.40
7666;DHT22;3875;46.562;4.898;2024-03-08T06:27:44;3.70;93.40
7666;DHT22;3875;46.562;4.898;2024-03-08T06:30:11;3.80;93.20
7666;DHT22;3875;46.562;4.898;2024-03-08T06:32:37;3.80;92.90
7666;DHT22;3875;46.562;4.898;2024-03-08T06:35:06;3.90;93.00
7666;DHT22;3875;46.562;4.898;2024-03-08T06:37:33;3.90;92.80
7666;DHT22;3875;46.562;4.898;2024-03-08T06:39:58;4.00;92.80
7666;DHT22;3875;46.562;4.898;2024-03-08T06:42:29;4.10;92.80
7666;DHT22;3875;46.562;4.898;2024-03-08T06:44:55;4.20;92.60
7666;DHT22;3875;46.562;4.898;2024-03-08T06:47:25;4.30;92.50
7666;DHT22;3875;46.562;4.898;2024-03-08T06:49:51;4.40;92.30
7666;DHT22;3875;46.562;4.898;2024-03-08T06:52:17;4.50;92.30
7666;DHT22;3875;46.562;4.898;2024-03-08T06:54:43;4.60;92.10
7666;DHT22;3875;46.562;4.898;2024-03-08T06:57:09;4.80;91.90
7666;DHT22;3875;46.562;4.898;2024-03-08T06:59:36;4.90;91.60
7666;DHT22;3875;46.562;4.898;2024-03-08T07:02:02;5.00;91.50
7666;DHT22;3875;46.562;4.898;2024-03-08T07:04:28;5.20;91.20
7666;DHT22;3875;46.562;4.898;2024-03-08T07:06:59;5.30;91.00
7666;DHT22;3875;46.562;4.898;2024-03-08T07:09:24;5.40;90.80
7666;DHT22;3875;46.562;4.898;2024-03-08T07:11:51;5.50;90.50
7666;DHT22;3875;46.562;4.898;2024-03-08T07:14:23;5.70;90.30
7666;DHT22;3875;46.562;4.898;2024-03-08T07:16:49;5.80;89.90
7666;DHT22;3875;46.562;4.898;2024-03-08T07:19:16;5.90;89.70
7666;DHT22;3875;46.562;4.898;2024-03-08T07:21:45;6.10;89.70
7666;DHT22;3875;46.562;4.898;2024-03-08T07:24:13;6.30;89.60
7666;DHT22;3875;46.562;4.898;2024-03-08T07:26:53;6.50;89.30
7666;DHT22;3875;46.562;4.898;2024-03-08T07:29:21;6.70;88.90
7666;DHT22;3875;46.562;4.898;2024-03-08T07:31:47;6.80;88.60
7666;DHT22;3875;46.562;4.898;2024-03-08T07:34:36;6.90;88.20
7666;DHT22;3875;46.562;4.898;2024-03-08T07:37:02;6.90;87.90
7666;DHT22;3875;46.562;4.898;2024-03-08T07:39:29;6.90;87.70
7666;DHT22;3875;46.562;4.898;2024-03-08T07:41:55;6.80;87.70
7666;DHT22;3875;46.562;4.898;2024-03-08T07:44:20;6.90;88.10
7666;DHT22;3875;46.562;4.898;2024-03-08T07:46:46;6.90;88.20
7666;DHT22;3875;46.562;4.898;2024-03-08T07:49:11;7.00;88.30
7666;DHT22;3875;46.562;4.898;2024-03-08T07:51:38;7.00;87.80
7666;DHT22;3875;46.562;4.898;2024-03-08T07:54:04;6.90;87.70
7666;DHT22;3875;46.562;4.898;2024-03-08T07:56:30;6.90;87.80
7666;DHT22;3875;46.562;4.898;2024-03-08T07:58:56;6.90;87.80
7666;DHT22;3875;46.562;4.898;2024-03-08T08:01:22;6.80;87.70
7666;DHT22;3875;46.562;4.898;2024-03-08T08:03:48;6.70;87.70
7666;DHT22;3875;46.562;4.898;2024-03-08T08:06:16;6.70;88.00
7666;DHT22;3875;46.562;4.898;2024-03-08T08:08:42;6.70;88.10
7666;DHT22;3875;46.562;4.898;2024-03-08T08:11:08;6.80;88.20
7666;DHT22;3875;46.562;4.898;2024-03-08T08:13:34;6.90;88.00
7666;DHT22;3875;46.562;4.898;2024-03-08T08:16:02;6.90;87.90
7666;DHT22;3875;46.562;4.898;2024-03-08T08:18:28;6.90;88.00
7666;DHT22;3875;46.562;4.898;2024-03-08T08:20:55;7.10;87.80
7666;DHT22;3875;46.562;4.898;2024-03-08T08:23:21;7.30;88.00
7666;DHT22;3875;46.562;4.898;2024-03-08T08:25:47;7.50;87.40
7666;DHT22;3875;46.562;4.898;2024-03-08T08:28:18;7.60;87.10
7666;DHT22;3875;46.562;4.898;2024-03-08T08:30:44;7.80;86.80
7666;DHT22;3875;46.562;4.898;2024-03-08T08:33:10;7.80;86.50
7666;DHT22;3875;46.562;4.898;2024-03-08T08:35:37;7.90;85.70
7666;DHT22;3875;46.562;4.898;2024-03-08T08:38:04;7.90;85.80
7666;DHT22;3875;46.562;4.898;2024-03-08T08:40:29;8.00;85.80
7666;DHT22;3875;46.562;4.898;2024-03-08T08:42:57;8.20;85.50
7666;DHT22;3875;46.562;4.898;2024-03-08T08:45:23;8.40;85.30
7666;DHT22;3875;46.562;4.898;2024-03-08T08:47:49;8.60;85.30
7666;DHT22;3875;46.562;4.898;2024-03-08T08:50:15;8.60;84.70
7666;DHT22;3875;46.562;4.898;2024-03-08T08:52:42;8.60;83.80
7666;DHT22;3875;46.562;4.898;2024-03-08T08:55:10;8.60;84.30
7666;DHT22;3875;46.562;4.898;2024-03-08T08:57:40;8.50;84.50
7666;DHT22;3875;46.562;4.898;2024-03-08T09:00:06;8.50;84.10
7666;DHT22;3875;46.562;4.898;2024-03-08T09:02:43;8.40;84.20
7666;DHT22;3875;46.562;4.898;2024-03-08T09:05:08;8.40;84.60
7666;DHT22;3875;46.562;4.898;2024-03-08T09:07:34;8.30;84.70
7666;DHT22;3875;46.562;4.898;2024-03-08T09:10:00;8.30;84.90
7666;DHT22;3875;46.562;4.898;2024-03-08T09:12:26;8.30;84.60
7666;DHT22;3875;46.562;4.898;2024-03-08T09:14:52;8.40;84.80
7666;DHT22;3875;46.562;4.898;2024-03-08T09:17:18;8.40;84.80
7666;DHT22;3875;46.562;4.898;2024-03-08T09:19:46;8.50;85.30
7666;DHT22;3875;46.562;4.898;2024-03-08T09:22:13;8.50;84.90
7666;DHT22;3875;46.562;4.898;2024-03-08T09:24:39;8.50;85.10
7666;DHT22;3875;46.562;4.898;2024-03-08T09:27:05;8.60;85.00
7666;DHT22;3875;46.562;4.898;2024-03-08T09:29:30;8.60;85.10
7666;DHT22;3875;46.562;4.898;2024-03-08T09:31:56;8.70;85.30
7666;DHT22;3875;46.562;4.898;2024-03-08T09:34:22;8.80;85.00
7666;DHT22;3875;46.562;4.898;2024-03-08T09:36:47;8.90;85.30
7666;DHT22;3875;46.562;4.898;2024-03-08T09:39:13;9.10;85.20
7666;DHT22;3875;46.562;4.898;2024-03-08T09:41:47;9.30;85.20
7666;DHT22;3875;46.562;4.898;2024-03-08T09:44:16;9.70;85.30
7666;DHT22;3875;46.562;4.898;2024-03-08T09:46:42;10.10;83.80
7666;DHT22;3875;46.562;4.898;2024-03-08T09:49:08;10.60;83.00
7666;DHT22;3875;46.562;4.898;2024-03-08T09:51:37;11.20;82.40
7666;DHT22;3875;46.562;4.898;2024-03-08T09:54:05;11.70;81.30
7666;DHT22;3875;46.562;4.898;2024-03-08T09:56:35;12.00;79.60
7666;DHT22;3875;46.562;4.898;2024-03-08T09:59:01;11.90;78.20
7666;DHT22;3875;46.562;4.898;2024-03-08T10:01:53;11.60;78.30
7666;DHT22;3875;46.562;4.898;2024-03-08T10:04:22;11.50;78.50
7666;DHT22;3875;46.562;4.898;2024-03-08T10:06:48;11.50;79.10
7666;DHT22;3875;46.562;4.898;2024-03-08T10:09:14;11.50;79.00
7666;DHT22;3875;46.562;4.898;2024-03-08T10:11:42;11.30;78.90
7666;DHT22;3875;46.562;4.898;2024-03-08T10:14:11;11.30;79.50
7666;DHT22;3875;46.562;4.898;2024-03-08T10:16:38;11.30;80.10
7666;DHT22;3875;46.562;4.898;2024-03-08T10:19:05;11.50;79.50
7666;DHT22;3875;46.562;4.898;2024-03-08T10:21:32;11.90;79.20
7666;DHT22;3875;46.562;4.898;2024-03-08T10:24:02;12.30;79.80
7666;DHT22;3875;46.562;4.898;2024-03-08T10:26:28;12.60;77.80
7666;DHT22;3875;46.562;4.898;2024-03-08T10:28:54;13.10;77.90
7666;DHT22;3875;46.562;4.898;2024-03-08T10:31:20;13.40;76.00
7666;DHT22;3875;46.562;4.898;2024-03-08T10:33:48;13.60;75.40
7666;DHT22;3875;46.562;4.898;2024-03-08T10:36:15;13.80;74.40
7666;DHT22;3875;46.562;4.898;2024-03-08T10:38:42;14.00;75.00
7666;DHT22;3875;46.562;4.898;2024-03-08T10:41:14;14.00;74.80
7666;DHT22;3875;46.562;4.898;2024-03-08T10:46:26;13.90;72.80
7666;DHT22;3875;46.562;4.898;2024-03-08T10:48:55;13.80;73.40
7666;DHT22;3875;46.562;4.898;2024-03-08T10:51:24;13.70;73.50
7666;DHT22;3875;46.562;4.898;2024-03-08T10:53:52;13.60;73.50
7666;DHT22;3875;46.562;4.898;2024-03-08T10:56:19;13.60;74.10
7666;DHT22;3875;46.562;4.898;2024-03-08T10:58:45;13.60;74.40
7666;DHT22;3875;46.562;4.898;2024-03-08T11:01:11;14.10;73.40
7666;DHT22;3875;46.562;4.898;2024-03-08T11:06:07;14.60;71.30
7666;DHT22;3875;46.562;4.898;2024-03-08T11:08:36;14.70;70.40
7666;DHT22;3875;46.562;4.898;2024-03-08T11:11:02;14.70;70.90
7666;DHT22;3875;46.562;4.898;2024-03-08T11:13:34;14.60;70.90
7666;DHT22;3875;46.562;4.898;2024-03-08T11:16:01;14.60;71.70
7666;DHT22;3875;46.562;4.898;2024-03-08T11:18:33;14.60;71.50
7666;DHT22;3875;46.562;4.898;2024-03-08T11:21:02;14.70;70.00
7666;DHT22;3875;46.562;4.898;2024-03-08T11:23:31;14.90;70.00
7666;DHT22;3875;46.562;4.898;2024-03-08T11:25:56;15.00;70.60
7666;DHT22;3875;46.562;4.898;2024-03-08T11:28:25;15.40;69.80
7666;DHT22;3875;46.562;4.898;2024-03-08T11:33:28;15.70;68.70
7666;DHT22;3875;46.562;4.898;2024-03-08T11:38:46;15.90;68.60
7666;DHT22;3875;46.562;4.898;2024-03-08T11:41:17;15.90;68.70
7666;DHT22;3875;46.562;4.898;2024-03-08T11:43:45;15.60;68.70
7666;DHT22;3875;46.562;4.898;2024-03-08T11:46:12;15.20;69.70
7666;DHT22;3875;46.562;4.898;2024-03-08T11:48:41;15.00;70.60
7666;DHT22;3875;46.562;4.898;2024-03-08T11:51:08;14.90;71.20
7666;DHT22;3875;46.562;4.898;2024-03-08T11:53:34;15.20;70.30
7666;DHT22;3875;46.562;4.898;2024-03-08T11:56:12;15.40;67.80
7666;DHT22;3875;46.562;4.898;2024-03-08T11:58:39;15.40;67.30
7666;DHT22;3875;46.562;4.898;2024-03-08T12:01:11;15.50;66.90
7666;DHT22;3875;46.562;4.898;2024-03-08T12:03:40;15.40;64.40
7666;DHT22;3875;46.562;4.898;2024-03-08T12:06:08;15.30;64.10
7666;DHT22;3875;46.562;4.898;2024-03-08T12:08:35;15.50;64.70
7666;DHT22;3875;46.562;4.898;2024-03-08T12:11:01;15.70;62.30
7666;DHT22;3875;46.562;4.898;2024-03-08T12:13:27;16.00;62.40
7666;DHT22;3875;46.562;4.898;2024-03-08T12:15:56;16.30;62.30
7666;DHT22;3875;46.562;4.898;2024-03-08T12:18:27;16.50;62.70
7666;DHT22;3875;46.562;4.898;2024-03-08T12:21:10;16.80;62.30
7666;DHT22;3875;46.562;4.898;2024-03-08T12:23:37;16.90;60.90
7666;DHT22;3875;46.562;4.898;2024-03-08T12:26:25;17.00;60.40
7666;DHT22;3875;46.562;4.898;2024-03-08T12:28:52;17.10;60.90
7666;DHT22;3875;46.562;4.898;2024-03-08T12:31:18;17.00;60.40
7666;DHT22;3875;46.562;4.898;2024-03-08T12:33:55;16.90;60.30
7666;DHT22;3875;46.562;4.898;2024-03-08T12:36:24;16.80;60.20
7666;DHT22;3875;46.562;4.898;2024-03-08T12:38:52;16.50;60.20
7666;DHT22;3875;46.562;4.898;2024-03-08T12:41:20;16.20;60.60
7666;DHT22;3875;46.562;4.898;2024-03-08T12:43:47;16.00;61.30
7666;DHT22;3875;46.562;4.898;2024-03-08T12:46:15;15.80;61.30
7666;DHT22;3875;46.562;4.898;2024-03-08T12:48:41;15.70;61.90
7666;DHT22;3875;46.562;4.898;2024-03-08T12:51:11;15.60;61.80
7666;DHT22;3875;46.562;4.898;2024-03-08T12:53:36;15.70;63.20
7666;DHT22;3875;46.562;4.898;2024-03-08T12:56:02;15.90;62.70
7666;DHT22;3875;46.562;4.898;2024-03-08T12:58:34;15.90;61.30
7666;DHT22;3875;46.562;4.898;2024-03-08T13:00:59;15.90;62.50
7666;DHT22;3875;46.562;4.898;2024-03-08T13:03:25;15.80;62.30
7666;DHT22;3875;46.562;4.898;2024-03-08T13:05:56;15.80;61.90
7666;DHT22;3875;46.562;4.898;2024-03-08T13:08:22;15.70;62.50
7666;DHT22;3875;46.562;4.898;2024-03-08T13:10:50;15.70;62.00
7666;DHT22;3875;46.562;4.898;2024-03-08T13:13:16;15.60;62.10
7666;DHT22;3875;46.562;4.898;2024-03-08T13:15:42;15.50;62.40
7666;DHT22;3875;46.562;4.898;2024-03-08T13:18:08;15.40;62.70
7666;DHT22;3875;46.562;4.898;2024-03-08T13:20:35;15.30;62.50
7666;DHT22;3875;46.562;4.898;2024-03-08T13:23:04;15.20;62.50
7666;DHT22;3875;46.562;4.898;2024-03-08T13:25:31;15.20;62.80
7666;DHT22;3875;46.562;4.898;2024-03-08T13:27:57;15.20;63.10
7666;DHT22;3875;46.562;4.898;2024-03-08T13:30:25;15.20;62.90
7666;DHT22;3875;46.562;4.898;2024-03-08T13:32:55;15.20;63.30
7666;DHT22;3875;46.562;4.898;2024-03-08T13:35:21;15.30;62.90
7666;DHT22;3875;46.562;4.898;2024-03-08T13:37:52;15.30;62.50
7666;DHT22;3875;46.562;4.898;2024-03-08T13:40:17;15.20;61.40
7666;DHT22;3875;46.562;4.898;2024-03-08T13:42:47;15.10;62.00
7666;DHT22;3875;46.562;4.898;2024-03-08T13:45:14;15.00;62.20
7666;DHT22;3875;46.562;4.898;2024-03-08T13:47:43;14.90;62.20
7666;DHT22;3875;46.562;4.898;2024-03-08T13:50:10;14.80;62.60
7666;DHT22;3875;46.562;4.898;2024-03-08T13:52:43;14.80;63.00
7666;DHT22;3875;46.562;4.898;2024-03-08T13:55:12;14.70;63.50
7666;DHT22;3875;46.562;4.898;2024-03-08T13:57:38;14.70;62.60
7666;DHT22;3875;46.562;4.898;2024-03-08T14:00:04;14.70;63.50
7666;DHT22;3875;46.562;4.898;2024-03-08T14:02:32;14.60;62.80
7666;DHT22;3875;46.562;4.898;2024-03-08T14:04:59;14.60;63.20
7666;DHT22;3875;46.562;4.898;2024-03-08T14:07:27;14.50;62.40
7666;DHT22;3875;46.562;4.898;2024-03-08T14:09:54;14.40;62.90
7666;DHT22;3875;46.562;4.898;2024-03-08T14:12:20;14.30;62.10
7666;DHT22;3875;46.562;4.898;2024-03-08T14:14:46;14.20;62.10
7666;DHT22;3875;46.562;4.898;2024-03-08T14:17:11;14.10;61.80
7666;DHT22;3875;46.562;4.898;2024-03-08T14:19:42;14.10;61.40
7666;DHT22;3875;46.562;4.898;2024-03-08T14:22:08;14.10;62.20
7666;DHT22;3875;46.562;4.898;2024-03-08T14:24:36;14.10;62.70
7666;DHT22;3875;46.562;4.898;2024-03-08T14:27:02;14.00;62.80
7666;DHT22;3875;46.562;4.898;2024-03-08T14:29:29;14.00;62.90
7666;DHT22;3875;46.562;4.898;2024-03-08T14:31:58;14.00;62.40
7666;DHT22;3875;46.562;4.898;2024-03-08T14:34:25;14.00;63.30
7666;DHT22;3875;46.562;4.898;2024-03-08T14:36:55;13.90;63.40
7666;DHT22;3875;46.562;4.898;2024-03-08T14:39:21;13.90;63.20
7666;DHT22;3875;46.562;4.898;2024-03-08T14:41:49;13.90;63.80
7666;DHT22;3875;46.562;4.898;2024-03-08T14:44:15;13.90;63.50
7666;DHT22;3875;46.562;4.898;2024-03-08T14:46:41;13.90;63.90
7666;DHT22;3875;46.562;4.898;2024-03-08T14:49:08;13.90;64.30
7666;DHT22;3875;46.562;4.898;2024-03-08T14:51:34;13.90;65.00
7666;DHT22;3875;46.562;4.898;2024-03-08T14:54:00;13.90;65.00
7666;DHT22;3875;46.562;4.898;2024-03-08T14:56:26;13.90;64.60
7666;DHT22;3875;46.562;4.898;2024-03-08T14:58:53;13.80;64.40
7666;DHT22;3875;46.562;4.898;2024-03-08T15:01:19;13.80;64.50
7666;DHT22;3875;46.562;4.898;2024-03-08T15:03:50;13.70;64.40
7666;DHT22;3875;46.562;4.898;2024-03-08T15:06:16;13.60;64.60
7666;DHT22;3875;46.562;4.898;2024-03-08T15:08:45;13.50;65.80
7666;DHT22;3875;46.562;4.898;2024-03-08T15:11:11;13.30;66.30
7666;DHT22;3875;46.562;4.898;2024-03-08T15:13:37;13.10;67.50
7666;DHT22;3875;46.562;4.898;2024-03-08T15:16:07;13.00;69.40
7666;DHT22;3875;46.562;4.898;2024-03-08T15:18:34;12.70;70.60
7666;DHT22;3875;46.562;4.898;2024-03-08T15:21:04;12.50;71.70
7666;DHT22;3875;46.562;4.898;2024-03-08T15:23:33;12.30;72.50
7666;DHT22;3875;46.562;4.898;2024-03-08T15:25:59;12.10;73.50
7666;DHT22;3875;46.562;4.898;2024-03-08T15:28:24;12.00;73.90
7666;DHT22;3875;46.562;4.898;2024-03-08T15:30:59;11.80;74.50
7666;DHT22;3875;46.562;4.898;2024-03-08T15:33:30;11.70;75.20
7666;DHT22;3875;46.562;4.898;2024-03-08T15:35:56;11.60;75.80
7666;DHT22;3875;46.562;4.898;2024-03-08T15:38:29;11.50;76.60
7666;DHT22;3875;46.562;4.898;2024-03-08T15:40:55;11.40;76.80
7666;DHT22;3875;46.562;4.898;2024-03-08T15:43:21;11.30;77.60
7666;DHT22;3875;46.562;4.898;2024-03-08T15:45:48;11.30;78.10
7666;DHT22;3875;46.562;4.898;2024-03-08T15:48:14;11.20;78.90
7666;DHT22;3875;46.562;4.898;2024-03-08T15:50:40;11.10;79.10
7666;DHT22;3875;46.562;4.898;2024-03-08T15:53:05;11.10;79.80
7666;DHT22;3875;46.562;4.898;2024-03-08T15:55:31;11.00;80.10
7666;DHT22;3875;46.562;4.898;2024-03-08T15:57:57;11.00;80.30
7666;DHT22;3875;46.562;4.898;2024-03-08T16:00:26;10.90;80.40
7666;DHT22;3875;46.562;4.898;2024-03-08T16:03:10;10.90;80.80
7666;DHT22;3875;46.562;4.898;2024-03-08T16:05:42;10.90;81.00
7666;DHT22;3875;46.562;4.898;2024-03-08T16:08:16;10.90;81.00
7666;DHT22;3875;46.562;4.898;2024-03-08T16:10:53;10.80;81.40
7666;DHT22;3875;46.562;4.898;2024-03-08T16:13:26;10.90;81.70
7666;DHT22;3875;46.562;4.898;2024-03-08T16:15:54;10.90;81.70
7666;DHT22;3875;46.562;4.898;2024-03-08T16:18:26;10.90;81.80
7666;DHT22;3875;46.562;4.898;2024-03-08T16:20:53;10.90;81.80
7666;DHT22;3875;46.562;4.898;2024-03-08T16:23:19;10.80;82.30
7666;DHT22;3875;46.562;4.898;2024-03-08T16:25:45;10.90;82.30